Time;durP1;ratioP1;P1;durP2;ratioP2;P2;SDS_P1;SDS_P2;PMS_P1;PMS_P2;Temp;Humidity;BMP_temperature;BMP_pressure;BME280_temperature;BME280_humidity;BME280_pressure;Samples;Min_cycle;Max_cycle;Signal;HPM_P1;HPM_P2
2022/09/04 00:00:11;;;;;;;;;;;;;;;28.47;42.47;94320.94;4843549;29;7240;-60
2022/09/04 00:03:09;;;;;;;;;;;;;;;28.45;42.66;94314.47;4841278;29;7651;-61
2022/09/04 00:06:04;;;;;;;;;;;;;;;28.46;42.37;94315.94;4845683;29;9937;-60
2022/09/04 00:09:07;;;;;;;;;;;;;;;28.44;42.82;94318.50;4849749;29;8879;-60
2022/09/04 00:12:04;;;;;;;;;;;;;;;28.39;42.45;94314.56;4841591;29;7128;-60
2022/09/04 00:14:46;;;;;;;;;;;;;;;28.40;42.37;94324.38;4851741;29;7474;-61
2022/09/04 00:17:40;;;;;;;;;;;;;;;28.42;42.59;94323.84;4909862;29;7622;-61
2022/09/04 00:20:25;;;;;;;;;;;;;;;28.42;42.60;94334.91;4920863;29;7214;-60
2022/09/04 00:23:12;;;;;;;;;;;;;;;28.39;42.37;94328.41;4904356;29;7203;-60
2022/09/04 00:26:01;;;;;;;;;;;;;;;28.38;42.38;94326.94;4921385;29;8659;-60
2022/09/04 00:28:41;;;;;;;;;;;;;;;28.41;42.52;94325.09;4905863;29;7733;-60
2022/09/04 00:31:18;;;;;;;;;;;;;;;28.40;43.01;94324.38;4911124;29;6996;-60
2022/09/04 00:34:12;;;;;;;;;;;;;;;28.41;42.63;94325.84;4925414;29;7314;-61
2022/09/04 00:37:03;;;;;;;;;;;;;;;28.42;42.36;94324.59;4985765;28;7946;-60
2022/09/04 00:39:57;;;;;;;;;;;;;;;28.42;43.39;94321.06;4988199;28;7229;-60
2022/09/04 00:43:05;;;;;;;;;;;;;;;28.45;42.28;94322.78;4990389;28;9250;-61
2022/09/04 00:45:56;;;;;;;;;;;;;;;28.45;42.12;94323.50;4945024;28;9377;-61
2022/09/04 00:48:34;;;;;;;;;;;;;;;28.44;42.21;94324.78;4944393;28;9790;-61
2022/09/04 00:51:48;;;;;;;;;;;;;;;28.44;42.34;94324.78;4950356;28;7792;-61
2022/09/04 00:54:43;;;;;;;;;;;;;;;28.45;42.02;94322.78;4948424;28;7397;-60
2022/09/04 00:57:35;;;;;;;;;;;;;;;28.45;42.28;94325.53;4949561;28;7487;-60
2022/09/04 01:00:11;;;;;;;;;;;;;;;28.44;42.34;94322.03;4954449;28;7561;-60
2022/09/04 01:02:43;;;;;;;;;;;;;;;28.44;42.17;94318.50;4944210;28;9796;-60
2022/09/04 01:06:04;;;;;;;;;;;;;;;28.45;42.49;94317.97;4951794;28;7309;-61
2022/09/04 01:08:48;;;;;;;;;;;;;;;28.43;42.00;94320.53;4898698;29;8969;-61
2022/09/04 01:11:47;;;;;;;;;;;;;;;28.41;42.27;94323.06;4890561;29;7671;-60
2022/09/04 01:14:17;;;;;;;;;;;;;;;28.41;42.29;94320.31;4898876;29;7525;-60
2022/09/04 01:17:04;;;;;;;;;;;;;;;28.40;42.70;94318.09;4918516;29;7221;-60
2022/09/04 01:20:05;;;;;;;;;;;;;;;28.39;42.36;94320.09;4944376;28;10737;-60
2022/09/04 01:22:56;;;;;;;;;;;;;;;28.41;42.30;94322.31;4909681;29;7299;-61
2022/09/04 01:25:56;;;;;;;;;;;;;;;28.39;42.22;94322.88;4942863;28;7223;-60
2022/09/04 01:29:06;;;;;;;;;;;;;;;28.40;42.53;94326.38;4930228;29;9036;-61
2022/09/04 01:32:11;;;;;;;;;;;;;;;28.44;42.10;94333.09;4948466;28;7313;-60
2022/09/04 01:35:08;;;;;;;;;;;;;;;28.43;42.24;94331.59;4950618;28;7525;-61
2022/09/04 01:37:58;;;;;;;;;;;;;;;28.43;42.21;94334.34;4932580;28;7345;-61
2022/09/04 01:40:45;;;;;;;;;;;;;;;28.42;42.43;94343.94;4934562;28;8386;-61
2022/09/04 01:43:19;;;;;;;;;;;;;;;28.38;42.46;94338.00;4989762;28;8576;-60
2022/09/04 01:49:36;;;;;;;;;;;;;;;28.36;41.88;94351.59;5008696;28;8804;-61
2022/09/04 01:52:38;;;;;;;;;;;;;;;28.37;42.38;94342.03;4996293;28;7345;-60
2022/09/04 01:55:27;;;;;;;;;;;;;;;28.35;42.67;94339.78;4990204;28;6876;-60
2022/09/04 01:58:28;;;;;;;;;;;;;;;28.37;42.21;94336.50;4993400;28;9453;-60
2022/09/04 02:01:29;;;;;;;;;;;;;;;28.35;42.23;94345.31;5006129;28;9413;-61
2022/09/04 02:04:20;;;;;;;;;;;;;;;28.35;42.28;94350.84;4951758;28;9471;-60
2022/09/04 02:07:34;;;;;;;;;;;;;;;28.35;42.38;94352.88;4945904;28;7074;-60
2022/09/04 02:10:22;;;;;;;;;;;;;;;28.32;42.59;94346.38;4953386;28;8702;-60
2022/09/04 02:13:14;;;;;;;;;;;;;;;28.32;41.78;94351.91;4952154;28;7723;-60
2022/09/04 02:16:05;;;;;;;;;;;;;;;28.32;42.30;94345.63;4948274;28;7222;-61
2022/09/04 02:19:00;;;;;;;;;;;;;;;28.30;42.10;94351.69;4933287;28;7246;-61
2022/09/04 02:21:42;;;;;;;;;;;;;;;28.30;42.31;94348.94;4947898;28;7217;-60
2022/09/04 02:24:33;;;;;;;;;;;;;;;28.31;41.75;94349.69;4952763;28;6932;-60
2022/09/04 02:27:11;;;;;;;;;;;;;;;28.28;42.60;94351.47;4901453;29;9558;-61
2022/09/04 02:30:03;;;;;;;;;;;;;;;28.24;42.62;94350.31;4894256;29;8448;-60
2022/09/04 02:32:58;;;;;;;;;;;;;;;28.22;42.41;94359.13;4931335;28;7242;-60
2022/09/04 02:35:44;;;;;;;;;;;;;;;28.20;42.94;94356.16;4915304;29;7752;-61
2022/09/04 02:39:00;;;;;;;;;;;;;;;28.17;42.75;94359.22;4911367;29;7556;-60
2022/09/04 02:41:38;;;;;;;;;;;;;;;28.14;42.64;94357.53;5000804;28;8355;-60
2022/09/04 02:44:49;;;;;;;;;;;;;;;28.14;42.68;94360.28;4988357;28;8537;-60
2022/09/04 02:47:47;;;;;;;;;;;;;;;28.13;43.08;94367.09;5010172;28;9393;-60
2022/09/04 02:50:48;;;;;;;;;;;;;;;28.12;42.47;94366.31;4991192;28;7258;-60
2022/09/04 02:53:52;;;;;;;;;;;;;;;28.10;42.59;94368.88;4989206;28;7232;-60
2022/09/04 02:57:08;;;;;;;;;;;;;;;28.10;42.50;94368.16;5003717;28;9480;-60
2022/09/04 03:00:18;;;;;;;;;;;;;;;28.08;42.66;94373.44;4945481;28;8953;-61
2022/09/04 03:03:15;;;;;;;;;;;;;;;28.07;42.74;94366.44;4945115;28;7434;-60
2022/09/04 03:06:00;;;;;;;;;;;;;;;28.07;42.63;94374.72;4953023;28;7315;-60
2022/09/04 03:08:49;;;;;;;;;;;;;;;28.07;42.76;94372.72;4952783;28;7193;-60
2022/09/04 03:11:37;;;;;;;;;;;;;;;28.07;42.15;94375.47;4951457;28;7972;-61
2022/09/04 03:14:11;;;;;;;;;;;;;;;28.05;42.61;94375.25;4940598;28;7286;-60
2022/09/04 03:16:51;;;;;;;;;;;;;;;28.04;42.56;94381.31;4935910;28;7255;-61
2022/09/04 03:19:46;;;;;;;;;;;;;;;28.04;42.53;94381.31;4933166;28;6988;-60
2022/09/04 03:22:45;;;;;;;;;;;;;;;28.05;42.73;94382.81;4950908;28;7546;-60
2022/09/04 03:25:36;;;;;;;;;;;;;;;28.03;42.74;94385.34;4949743;28;7529;-60
2022/09/04 03:28:45;;;;;;;;;;;;;;;28.02;42.75;94395.66;4953390;28;8619;-60
2022/09/04 03:31:35;;;;;;;;;;;;;;;28.02;42.75;94389.38;4951492;28;7371;-60
2022/09/04 03:34:38;;;;;;;;;;;;;;;28.03;42.54;94385.34;4950431;28;7353;-61
2022/09/04 03:37:23;;;;;;;;;;;;;;;28.01;42.79;94385.88;4985872;28;7302;-60
2022/09/04 03:40:29;;;;;;;;;;;;;;;28.01;42.71;94396.94;4998355;28;7214;-60
2022/09/04 03:43:47;;;;;;;;;;;;;;;28.00;42.62;94398.22;4992512;28;7037;-60
2022/09/04 03:46:57;;;;;;;;;;;;;;;28.02;42.48;94397.66;4951977;28;7827;-60
2022/09/04 03:50:08;;;;;;;;;;;;;;;28.01;42.68;94385.88;4891828;29;7211;-60
2022/09/04 03:53:01;;;;;;;;;;;;;;;28.01;42.60;94399.72;4865124;29;7230;-61
2022/09/04 03:55:36;;;;;;;;;;;;;;;28.01;42.67;94404.50;4857625;29;7219;-61
2022/09/04 03:58:13;;;;;;;;;;;;;;;28.00;42.90;94405.75;4871045;29;7039;-60
2022/09/04 04:01:02;;;;;;;;;;;;;;;28.02;42.44;94403.19;4850281;29;9753;-60
2022/09/04 04:03:57;;;;;;;;;;;;;;;27.97;43.00;94402.00;4833029;29;7312;-60
2022/09/04 04:07:01;;;;;;;;;;;;;;;27.98;42.55;94405.53;4826632;29;7579;-61
2022/09/04 04:10:05;;;;;;;;;;;;;;;27.98;42.72;94400.75;4806511;29;7277;-60
2022/09/04 04:12:43;;;;;;;;;;;;;;;27.96;42.50;94399.75;4828086;29;7744;-60
2022/09/04 04:15:53;;;;;;;;;;;;;;;27.98;42.59;94408.28;4825647;29;7232;-60
2022/09/04 04:18:33;;;;;;;;;;;;;;;27.98;42.43;94405.53;4820420;29;8772;-60
2022/09/04 04:21:18;;;;;;;;;;;;;;;27.98;42.73;94419.34;4826523;29;7546;-61
2022/09/04 04:24:08;;;;;;;;;;;;;;;27.97;42.87;94415.09;4832257;29;7919;-60
2022/09/04 04:27:12;;;;;;;;;;;;;;;27.97;42.56;94415.09;4899133;29;6989;-60
2022/09/04 04:29:50;;;;;;;;;;;;;;;27.95;42.95;94423.88;4923457;28;7281;-60
2022/09/04 04:32:19;;;;;;;;;;;;;;;27.94;42.13;94427.94;4929462;29;7601;-60
2022/09/04 04:34:52;;;;;;;;;;;;;;;27.95;42.35;94428.69;4921913;29;7181;-60
2022/09/04 04:37:56;;;;;;;;;;;;;;;27.94;42.74;94429.94;4924812;28;7162;-60
2022/09/04 04:40:56;;;;;;;;;;;;;;;27.95;42.44;94425.94;4947663;28;9513;-61
2022/09/04 04:43:50;;;;;;;;;;;;;;;27.93;42.58;94431.97;4986765;28;8207;-61
2022/09/04 04:46:58;;;;;;;;;;;;;;;27.90;42.53;94435.03;4991354;28;7251;-60
2022/09/04 04:49:51;;;;;;;;;;;;;;;27.92;42.57;94447.06;4988697;28;7155;-61
2022/09/04 04:52:28;;;;;;;;;;;;;;;27.93;42.00;94445.78;5010710;28;7689;-60
2022/09/04 04:55:09;;;;;;;;;;;;;;;27.93;42.67;94445.03;4991668;28;6991;-60
2022/09/04 04:57:54;;;;;;;;;;;;;;;27.91;42.39;94456.63;5007527;28;9424;-60
2022/09/04 05:00:38;;;;;;;;;;;;;;;27.92;42.28;94458.13;4986502;28;9370;-60
2022/09/04 05:03:31;;;;;;;;;;;;;;;27.91;42.40;94455.88;4998707;28;7331;-60
2022/09/04 05:06:08;;;;;;;;;;;;;;;27.89;42.37;94452.88;4977924;28;8852;-60
2022/09/04 05:08:48;;;;;;;;;;;;;;;27.89;42.76;94453.63;4989164;28;8656;-60
2022/09/04 05:11:38;;;;;;;;;;;;;;;27.89;42.22;94470.22;4987306;28;9239;-60
2022/09/04 05:14:42;;;;;;;;;;;;;;;27.88;42.48;94473.53;5005998;28;9273;-60
2022/09/04 05:17:19;;;;;;;;;;;;;;;27.89;41.86;94480.53;5006468;28;7009;-60
2022/09/04 05:20:17;;;;;;;;;;;;;;;27.86;41.95;94476.78;4983119;28;9503;-61
2022/09/04 05:23:02;;;;;;;;;;;;;;;27.87;42.36;94488.59;4998690;28;7349;-60
2022/09/04 05:25:53;;;;;;;;;;;;;;;27.86;42.27;94492.66;5004303;28;9420;-60
2022/09/04 05:28:19;;;;;;;;;;;;;;;27.85;42.19;94500.19;4990156;28;7213;-60
2022/09/04 05:30:54;;;;;;;;;;;;;;;27.86;42.16;94504.44;4989107;28;7630;-60
2022/09/04 05:33:55;;;;;;;;;;;;;;;27.87;42.07;94505.19;4988229;28;9604;-61
2022/09/04 05:36:47;;;;;;;;;;;;;;;27.86;41.87;94498.91;4994950;28;9341;-61
2022/09/04 05:39:32;;;;;;;;;;;;;;;27.86;42.03;94500.94;4991011;28;6944;-60
2022/09/04 05:42:14;;;;;;;;;;;;;;;27.86;42.02;94503.72;4987158;28;7391;-60
2022/09/04 05:45:11;;;;;;;;;;;;;;;27.85;41.67;94505.72;4994455;28;7224;-60
2022/09/04 05:47:55;;;;;;;;;;;;;;;27.84;41.71;94509.75;5010629;28;7206;-61
2022/09/04 05:50:46;;;;;;;;;;;;;;;27.85;42.19;94510.50;5006124;28;7543;-61
2022/09/04 05:53:23;;;;;;;;;;;;;;;27.84;41.88;94509.75;5001394;28;7317;-60
2022/09/04 05:55:58;;;;;;;;;;;;;;;27.83;42.35;94516.56;5002689;28;7275;-60
2022/09/04 05:58:56;;;;;;;;;;;;;;;27.83;42.11;94522.09;4989398;28;8159;-60
2022/09/04 06:01:52;;;;;;;;;;;;;;;27.84;42.36;94520.78;4981628;28;7265;-61
2022/09/04 06:04:52;;;;;;;;;;;;;;;27.85;42.27;94524.31;4985798;28;9524;-60
2022/09/04 06:07:34;;;;;;;;;;;;;;;27.83;42.18;94524.84;4987953;28;7179;-59
2022/09/04 06:10:06;;;;;;;;;;;;;;;27.83;41.99;94521.31;4986067;28;7199;-60
2022/09/04 06:12:56;;;;;;;;;;;;;;;27.82;42.22;94528.88;5002314;28;10091;-60
2022/09/04 06:15:35;;;;;;;;;;;;;;;27.83;41.74;94533.13;4991247;28;7274;-60
2022/09/04 06:18:40;;;;;;;;;;;;;;;27.85;41.97;94536.13;4986213;28;7109;-60
2022/09/04 06:21:34;;;;;;;;;;;;;;;27.87;42.07;94535.59;5005901;28;9421;-60
2022/09/04 06:24:27;;;;;;;;;;;;;;;27.88;42.04;94548.16;5002342;28;7439;-61
2022/09/04 06:27:08;;;;;;;;;;;;;;;27.85;42.05;94535.38;5007842;28;7218;-60
2022/09/04 06:29:53;;;;;;;;;;;;;;;27.83;42.10;94543.44;4988698;28;9278;-60
2022/09/04 06:33:05;;;;;;;;;;;;;;;27.80;42.08;94555.53;4995278;28;9427;-60
2022/09/04 06:35:50;;;;;;;;;;;;;;;27.78;42.26;94561.59;4990065;28;7925;-61
2022/09/04 06:38:42;;;;;;;;;;;;;;;27.77;42.41;94573.16;4992057;28;6948;-61
2022/09/04 06:41:45;;;;;;;;;;;;;;;27.82;42.37;94575.13;5003812;28;7213;-60
2022/09/04 06:44:19;;;;;;;;;;;;;;;27.81;42.23;94579.91;5007513;28;7524;-61
2022/09/04 06:47:04;;;;;;;;;;;;;;;27.77;42.47;94579.44;5004601;28;7325;-61
2022/09/04 06:50:04;;;;;;;;;;;;;;;27.72;43.04;94579.50;5005688;28;7174;-60
2022/09/04 06:53:07;;;;;;;;;;;;;;;27.70;42.11;94576.50;4984716;28;7392;-61
2022/09/04 06:56:19;;;;;;;;;;;;;;;27.74;42.51;94576.97;5006283;28;6970;-61
2022/09/04 06:59:16;;;;;;;;;;;;;;;27.78;42.17;94574.66;5012600;28;7078;-60
2022/09/04 07:02:04;;;;;;;;;;;;;;;27.80;42.35;94566.59;4999361;28;8200;-60
2022/09/04 07:08:29;;;;;;;;;;;;;;;27.79;42.41;94567.88;4913422;29;9306;-60
2022/09/04 07:11:23;;;;;;;;;;;;;;;27.80;42.38;94567.34;4898519;29;6996;-60
2022/09/04 07:14:15;;;;;;;;;;;;;;;27.80;42.45;94566.59;4902896;29;7362;-60
2022/09/04 07:17:18;;;;;;;;;;;;;;;27.79;42.63;94578.94;4895836;29;7246;-61
2022/09/04 07:20:15;;;;;;;;;;;;;;;27.78;42.49;94563.59;4907036;29;6994;-61
2022/09/04 07:23:10;;;;;;;;;;;;;;;27.79;42.74;94562.34;4898022;29;8405;-60
2022/09/04 07:25:55;;;;;;;;;;;;;;;27.78;42.71;94564.34;4892938;29;7568;-61
2022/09/04 07:28:56;;;;;;;;;;;;;;;27.81;42.60;94573.63;4893280;29;7314;-61
2022/09/04 07:31:36;;;;;;;;;;;;;;;27.81;42.52;94571.59;4878562;29;8922;-61
2022/09/04 07:34:20;;;;;;;;;;;;;;;27.82;42.17;94575.84;4893338;29;7727;-60
2022/09/04 07:37:11;;;;;;;;;;;;;;;27.84;42.42;94578.13;4892811;29;7285;-61
2022/09/04 07:39:47;;;;;;;;;;;;;;;27.82;42.64;94578.63;4877458;29;7133;-61
2022/09/04 07:42:36;;;;;;;;;;;;;;;27.81;42.52;94587.44;4880929;29;7474;-61
2022/09/04 07:45:46;;;;;;;;;;;;;;;27.81;42.74;94584.69;4927360;28;7227;-60
2022/09/04 07:48:54;;;;;;;;;;;;;;;27.81;42.90;94582.66;4953807;28;9386;-61
2022/09/04 07:51:42;;;;;;;;;;;;;;;27.80;43.16;94591.47;4947638;28;7239;-60
2022/09/04 07:54:36;;;;;;;;;;;;;;;27.81;42.96;94601.25;4931019;28;6958;-60
2022/09/04 07:57:21;;;;;;;;;;;;;;;27.79;43.33;94603.81;4943385;28;7861;-60
2022/09/04 08:00:22;;;;;;;;;;;;;;;27.78;42.91;94603.03;4950188;28;9137;-61
2022/09/04 08:03:26;;;;;;;;;;;;;;;27.79;42.84;94598.28;4990120;28;9356;-61
2022/09/04 08:06:31;;;;;;;;;;;;;;;27.78;43.10;94597.53;4990049;28;7204;-60
2022/09/04 08:09:34;;;;;;;;;;;;;;;27.81;43.23;94606.78;5006677;28;7159;-61
2022/09/04 08:12:42;;;;;;;;;;;;;;;27.79;43.25;94606.56;4988249;28;7566;-61
2022/09/04 08:15:42;;;;;;;;;;;;;;;27.82;43.07;94608.31;4990995;28;8908;-61
2022/09/04 08:18:37;;;;;;;;;;;;;;;27.83;43.08;94602.25;4989467;28;7794;-61
2022/09/04 08:21:31;;;;;;;;;;;;;;;27.84;42.86;94616.81;4973048;28;7068;-60
2022/09/04 08:24:09;;;;;;;;;;;;;;;27.84;43.14;94617.53;4991037;28;7206;-61
2022/09/04 08:26:47;;;;;;;;;;;;;;;27.83;43.16;94616.06;5003038;28;7119;-61
2022/09/04 08:30:05;;;;;;;;;;;;;;;27.84;43.29;94622.34;4982262;28;7890;-60
2022/09/04 08:33:03;;;;;;;;;;;;;;;27.82;43.43;94625.59;4981971;28;7181;-61
2022/09/04 08:35:55;;;;;;;;;;;;;;;27.82;43.34;94633.19;4942170;28;7199;-61
2022/09/04 08:38:57;;;;;;;;;;;;;;;27.81;43.21;94626.91;4948414;28;7306;-61
2022/09/04 08:42:04;;;;;;;;;;;;;;;27.82;43.42;94631.13;4968453;28;7227;-61
2022/09/04 08:45:26;;;;;;;;;;;;;;;27.82;43.43;94630.41;4968949;28;8083;-61
2022/09/04 08:48:34;;;;;;;;;;;;;;;27.83;43.06;94638.19;4946342;28;7519;-61
2022/09/04 08:51:12;;;;;;;;;;;;;;;27.84;43.38;94633.41;4952085;28;9396;-61
2022/09/04 08:54:02;;;;;;;;;;;;;;;27.84;43.38;94636.91;4946518;28;7229;-61
2022/09/04 08:56:41;;;;;;;;;;;;;;;27.83;43.41;94629.88;4949180;28;9451;-61
2022/09/04 09:02:58;;;;;;;;;;;;;;;27.82;43.65;94627.66;4946806;28;7041;-60
2022/09/04 09:06:11;;;;;;;;;;;;;;;27.81;43.71;94635.19;4946782;28;8535;-61
2022/09/04 09:09:15;;;;;;;;;;;;;;;27.83;43.65;94629.13;4947344;28;7444;-60
2022/09/04 09:12:18;;;;;;;;;;;;;;;27.83;43.38;94631.91;4945335;28;9395;-60
2022/09/04 09:14:56;;;;;;;;;;;;;;;27.82;43.47;94630.41;4974931;28;7794;-60
2022/09/04 09:17:46;;;;;;;;;;;;;;;27.81;43.56;94634.44;4974093;28;9401;-60
2022/09/04 09:20:26;;;;;;;;;;;;;;;27.82;43.08;94633.19;4962864;28;7234;-60
2022/09/04 09:23:14;;;;;;;;;;;;;;;27.82;43.73;94630.41;4983574;28;8555;-60
2022/09/04 09:25:49;;;;;;;;;;;;;;;27.83;44.01;94634.66;4997263;28;7227;-60
2022/09/04 09:28:49;;;;;;;;;;;;;;;27.83;43.37;94627.13;4998704;28;9096;-60
2022/09/04 09:32:00;;;;;;;;;;;;;;;27.85;43.66;94629.34;4984204;28;7226;-60
2022/09/04 09:35:07;;;;;;;;;;;;;;;27.86;43.65;94630.88;4999313;28;9332;-60
2022/09/04 09:38:18;;;;;;;;;;;;;;;27.86;43.51;94628.81;4991553;28;7183;-61
2022/09/04 09:40:56;;;;;;;;;;;;;;;27.86;43.59;94631.59;4982679;28;7448;-61
2022/09/04 09:43:45;;;;;;;;;;;;;;;27.87;43.38;94629.59;5005403;28;9127;-60
2022/09/04 09:46:57;;;;;;;;;;;;;;;27.88;43.55;94625.56;5004133;28;7083;-61
2022/09/04 09:53:13;;;;;;;;;;;;;;;27.88;43.31;94623.56;4991648;28;7165;-60
2022/09/04 09:56:25;;;;;;;;;;;;;;;27.90;43.33;94620.25;4988874;28;7880;-60
2022/09/04 09:59:21;;;;;;;;;;;;;;;27.89;42.99;94615.97;4988675;28;7056;-61
2022/09/04 10:02:31;;;;;;;;;;;;;;;27.88;43.56;94617.28;4968122;28;6988;-60
2022/09/04 10:05:32;;;;;;;;;;;;;;;27.89;43.43;94622.28;4969814;28;9578;-60
2022/09/04 10:08:16;;;;;;;;;;;;;;;27.89;43.39;94618.75;4971360;28;7537;-60
2022/09/04 10:11:04;;;;;;;;;;;;;;;27.91;43.55;94630.03;4967951;28;7233;-60
2022/09/04 10:14:12;;;;;;;;;;;;;;;27.90;43.38;94621.00;4967769;28;7246;-61
2022/09/04 10:17:21;;;;;;;;;;;;;;;27.90;43.34;94625.78;4971824;28;7408;-61
2022/09/04 10:20:24;;;;;;;;;;;;;;;27.93;43.76;94624.72;4939136;28;7140;-60
2022/09/04 10:23:17;;;;;;;;;;;;;;;27.94;43.55;94620.72;4942018;28;8670;-60
2022/09/04 10:26:22;;;;;;;;;;;;;;;27.95;43.82;94622.22;4946564;28;7282;-60
2022/09/04 10:29:33;;;;;;;;;;;;;;;27.95;43.13;94619.44;4941870;28;9390;-60
2022/09/04 10:32:23;;;;;;;;;;;;;;;27.95;43.62;94616.69;4949065;28;7250;-60
2022/09/04 10:35:13;;;;;;;;;;;;;;;27.97;43.78;94616.91;4948386;28;9263;-61
2022/09/04 10:38:07;;;;;;;;;;;;;;;27.97;43.89;94617.66;4953749;28;7233;-61
2022/09/04 10:41:09;;;;;;;;;;;;;;;28.01;43.63;94617.38;4982292;28;6990;-60
2022/09/04 10:44:02;;;;;;;;;;;;;;;28.01;43.69;94622.91;4967499;28;7280;-60
2022/09/04 10:47:03;;;;;;;;;;;;;;;28.01;43.72;94620.91;4967852;28;7244;-60
2022/09/04 10:49:54;;;;;;;;;;;;;;;28.03;43.18;94623.91;4967410;28;7426;-60
2022/09/04 10:52:53;;;;;;;;;;;;;;;28.05;43.53;94615.06;4979795;28;7642;-60
2022/09/04 10:55:48;;;;;;;;;;;;;;;28.05;44.00;94615.06;4971115;28;8626;-60
2022/09/04 10:58:16;;;;;;;;;;;;;;;28.06;43.93;94602.72;4946033;28;7125;-60
2022/09/04 11:04:26;;;;;;;;;;;;;;;28.09;43.65;94601.69;4971463;28;7165;-61
2022/09/04 11:07:40;;;;;;;;;;;;;;;28.11;44.09;94602.69;4984684;28;7188;-60
2022/09/04 11:10:12;;;;;;;;;;;;;;;28.13;44.28;94607.69;4970131;28;7300;-60
2022/09/04 11:12:57;;;;;;;;;;;;;;;28.12;44.21;94597.91;4967516;28;7351;-60
2022/09/04 11:15:43;;;;;;;;;;;;;;;28.12;44.33;94598.63;4981616;28;7357;-61
2022/09/04 11:18:48;;;;;;;;;;;;;;;28.13;44.33;94593.84;4987289;28;9310;-61
2022/09/04 11:21:13;;;;;;;;;;;;;;;28.15;44.29;94600.34;4926247;29;7324;-60
2022/09/04 11:23:42;;;;;;;;;;;;;;;28.17;44.25;94592.28;4911885;29;9386;-61
2022/09/04 11:26:17;;;;;;;;;;;;;;;28.17;44.61;94595.03;4920685;28;7411;-61
2022/09/04 11:29:03;;;;;;;;;;;;;;;28.17;44.63;94595.03;4942792;28;6994;-60
2022/09/04 11:31:47;;;;;;;;;;;;;;;28.18;44.66;94601.34;4903834;29;7317;-60
2022/09/04 11:34:31;;;;;;;;;;;;;;;28.20;44.36;94594.00;4903816;29;7312;-61
2022/09/04 11:37:18;;;;;;;;;;;;;;;28.21;44.63;94595.50;4905545;29;7248;-61
2022/09/04 11:40:19;;;;;;;;;;;;;;;28.23;44.05;94603.28;4906010;29;6990;-61
2022/09/04 11:43:17;;;;;;;;;;;;;;;28.24;44.23;94599.97;4909409;29;10131;-61
2022/09/04 11:45:47;;;;;;;;;;;;;;;28.26;44.54;94604.97;4907602;29;7307;-60
2022/09/04 11:48:56;;;;;;;;;;;;;;;28.28;44.31;94596.91;4911768;29;7591;-61
2022/09/04 11:51:39;;;;;;;;;;;;;;;28.28;44.35;94592.13;4914723;29;9189;-61
2022/09/04 11:54:35;;;;;;;;;;;;;;;28.30;44.23;94605.44;4912949;29;6848;-60
2022/09/04 11:57:23;;;;;;;;;;;;;;;28.32;44.52;94589.06;4947754;28;7237;-61
2022/09/04 12:00:09;;;;;;;;;;;;;;;28.33;44.28;94590.56;4948028;28;9051;-60
2022/09/04 12:03:13;;;;;;;;;;;;;;;28.35;44.34;94599.09;4934370;28;7238;-61
2022/09/04 12:06:08;;;;;;;;;;;;;;;28.35;44.50;94597.06;4948139;28;7854;-61
2022/09/04 12:09:12;;;;;;;;;;;;;;;28.36;44.12;94595.06;4971456;28;7245;-61
2022/09/04 12:12:15;;;;;;;;;;;;;;;28.38;43.83;94606.34;5007677;28;7234;-60
2022/09/04 12:15:21;;;;;;;;;;;;;;;28.40;43.69;94606.56;5010686;28;9604;-61
2022/09/04 12:18:34;;;;;;;;;;;;;;;28.40;43.46;94605.81;5008909;28;7372;-60
2022/09/04 12:21:25;;;;;;;;;;;;;;;28.43;43.39;94604.78;4953346;28;7561;-60
2022/09/04 12:24:09;;;;;;;;;;;;;;;28.44;43.48;94600.72;4951917;28;7242;-60
2022/09/04 12:26:56;;;;;;;;;;;;;;;28.45;43.90;94593.94;4946687;28;7229;-61
2022/09/04 12:33:55;;;;;;;;;;;;;;;28.47;43.68;94588.63;4911478;29;7313;-60
2022/09/04 12:37:06;;;;;;;;;;;;;;;28.47;43.43;94594.88;4896276;29;7267;-61
2022/09/04 12:39:47;;;;;;;;;;;;;;;28.47;43.56;94592.09;4859488;29;7167;-60
2022/09/04 12:43:05;;;;;;;;;;;;;;;28.50;43.39;94591.06;4865484;29;7561;-60
2022/09/04 12:45:39;;;;;;;;;;;;;;;28.50;43.72;94593.84;4844149;29;7522;-61
2022/09/04 12:48:35;;;;;;;;;;;;;;;28.52;43.99;94598.84;4841552;29;7302;-60
2022/09/04 12:51:27;;;;;;;;;;;;;;;28.52;43.24;94596.81;4847131;29;7229;-61
2022/09/04 12:54:32;;;;;;;;;;;;;;;28.55;43.82;94595.03;4844290;29;8203;-60
2022/09/04 12:57:19;;;;;;;;;;;;;;;28.58;43.49;94596.78;4843375;29;8320;-60
2022/09/04 12:59:59;;;;;;;;;;;;;;;28.58;43.01;94594.00;4881979;29;9450;-61
2022/09/04 13:03:08;;;;;;;;;;;;;;;28.59;43.48;94601.03;4863651;29;6998;-60
2022/09/04 13:06:05;;;;;;;;;;;;;;;28.60;43.16;94600.50;4861120;29;10659;-60
2022/09/04 13:08:57;;;;;;;;;;;;;;;28.61;43.70;94599.22;4879588;29;7241;-60
2022/09/04 13:12:08;;;;;;;;;;;;;;;28.63;43.61;94607.75;4881787;29;7212;-61
2022/09/04 13:15:01;;;;;;;;;;;;;;;28.64;43.98;94603.72;4854545;29;7681;-61
2022/09/04 13:18:17;;;;;;;;;;;;;;;28.67;43.27;94602.66;4892220;29;8293;-61
2022/09/04 13:21:00;;;;;;;;;;;;;;;28.70;44.01;94596.09;4945105;29;9319;-60
2022/09/04 13:23:45;;;;;;;;;;;;;;;28.72;43.48;94596.31;4946504;29;9674;-61
2022/09/04 13:26:16;;;;;;;;;;;;;;;28.75;43.44;94594.50;4943083;29;9408;-60
2022/09/04 13:29:22;;;;;;;;;;;;;;;28.77;43.28;94600.25;4944421;28;8833;-61
2022/09/04 13:32:06;;;;;;;;;;;;;;;28.79;43.28;94601.22;4935813;28;8571;-61
2022/09/04 13:35:07;;;;;;;;;;;;;;;28.82;43.64;94596.63;4938267;28;7244;-60
2022/09/04 13:37:56;;;;;;;;;;;;;;;28.84;43.38;94600.38;4946312;28;7199;-61
2022/09/04 13:40:53;;;;;;;;;;;;;;;28.88;43.62;94603.59;4948940;28;9061;-60
2022/09/04 13:43:28;;;;;;;;;;;;;;;28.88;44.20;94600.09;4944410;28;7384;-60
2022/09/04 13:46:02;;;;;;;;;;;;;;;28.91;43.59;94601.78;4988547;28;7248;-61
2022/09/04 13:48:46;;;;;;;;;;;;;;;28.92;43.75;94595.75;4998843;28;7227;-61
2022/09/04 13:51:45;;;;;;;;;;;;;;;28.96;43.97;94595.41;5011840;28;6990;-61
2022/09/04 13:54:38;;;;;;;;;;;;;;;28.98;43.95;94598.41;4996214;28;7326;-60
2022/09/04 13:57:24;;;;;;;;;;;;;;;28.99;43.84;94595.09;5008511;28;7288;-61
2022/09/04 13:59:54;;;;;;;;;;;;;;;29.01;43.40;94600.13;5013297;28;7345;-60
2022/09/04 14:02:26;;;;;;;;;;;;;;;29.04;43.54;94596.28;4991983;28;9440;-60
2022/09/04 14:05:04;;;;;;;;;;;;;;;29.06;43.29;94599.28;4987014;28;9333;-61
2022/09/04 14:07:40;;;;;;;;;;;;;;;29.08;43.59;94599.47;5010378;28;8670;-61
2022/09/04 14:10:29;;;;;;;;;;;;;;;29.09;43.80;94596.19;4994144;28;7049;-60
2022/09/04 14:13:03;;;;;;;;;;;;;;;29.12;44.28;94597.19;4995642;28;7478;-61
2022/09/04 14:16:07;;;;;;;;;;;;;;;29.14;43.89;94596.63;5011373;28;7248;-61
2022/09/04 14:18:46;;;;;;;;;;;;;;;29.17;43.36;94601.16;4998792;28;7293;-60
2022/09/04 14:21:44;;;;;;;;;;;;;;;29.16;43.86;94603.19;5012999;28;7259;-61
2022/09/04 14:24:31;;;;;;;;;;;;;;;29.20;43.73;94605.63;5005435;28;7837;-61
2022/09/04 14:27:07;;;;;;;;;;;;;;;29.21;43.99;94598.81;4989703;28;7416;-61
2022/09/04 14:30:04;;;;;;;;;;;;;;;29.24;44.01;94606.06;5008760;28;9343;-61
2022/09/04 14:32:51;;;;;;;;;;;;;;;29.24;43.82;94600.50;5007822;28;7298;-60
2022/09/04 14:35:26;;;;;;;;;;;;;;;29.26;43.15;94601.47;5008784;28;7226;-61
2022/09/04 14:38:08;;;;;;;;;;;;;;;29.27;43.23;94594.66;4994719;28;7054;-60
2022/09/04 14:40:44;;;;;;;;;;;;;;;29.30;43.29;94599.13;5007153;28;7132;-61
2022/09/04 14:43:48;;;;;;;;;;;;;;;29.33;43.84;94600.09;5012635;28;7148;-61
2022/09/04 14:46:34;;;;;;;;;;;;;;;29.34;43.88;94602.34;4954824;28;7154;-60
2022/09/04 14:49:26;;;;;;;;;;;;;;;29.37;43.60;94595.00;4954218;28;9429;-61
2022/09/04 14:51:55;;;;;;;;;;;;;;;29.39;43.20;94597.97;4953976;28;7539;-61
2022/09/04 14:54:35;;;;;;;;;;;;;;;29.42;43.93;94596.91;4953365;28;7478;-61
2022/09/04 14:57:37;;;;;;;;;;;;;;;29.47;42.78;94593.31;4954617;28;8635;-61
2022/09/04 15:00:23;;;;;;;;;;;;;;;29.48;42.64;94592.03;4953852;28;9282;-60
2022/09/04 15:03:19;;;;;;;;;;;;;;;29.52;42.98;94593.19;4950944;28;7282;-61
2022/09/04 15:06:24;;;;;;;;;;;;;;;29.54;43.36;94587.88;4954373;28;7306;-61
2022/09/04 15:12:35;;;;;;;;;;;;;;;29.57;43.60;94595.13;4896309;29;7357;-61
2022/09/04 15:15:13;;;;;;;;;;;;;;;29.60;43.30;94590.53;4895919;29;9185;-60
2022/09/04 15:17:51;;;;;;;;;;;;;;;29.59;43.32;94584.25;4885045;29;8220;-61
2022/09/04 15:20:21;;;;;;;;;;;;;;;29.65;42.81;94586.91;4893957;29;7261;-61
2022/09/04 15:23:05;;;;;;;;;;;;;;;29.66;42.89;94591.94;4903435;29;8300;-60
2022/09/04 15:25:50;;;;;;;;;;;;;;;29.68;43.13;94592.16;4932157;29;8223;-61
2022/09/04 15:28:53;;;;;;;;;;;;;;;29.70;43.54;94588.81;4924080;29;9327;-60
2022/09/04 15:31:40;;;;;;;;;;;;;;;29.72;42.73;94580.72;4923819;29;7259;-61